Love Boat — OT3861 — position and weather

sailwx.info

Track history (hours):
 
Tides and Currents Weather Stations Pressure Air Temp Water Temp Dewpoint Dewpoint Depression Visibility Wind Speed Wind Dir Waves Ship Positions

Love Boat

Last reported at 2014-Dec-17 14:21 UTC. Time now 2014-Dec-19 04:39 UTC.
Position N 49°59' E 009°05'.

Length 110 m; draft 3 m.

Type: Ship. MMSI: 205386190.

Date/timePositionNaut miles runAvg speedWind from/ knotsBaromVisibWave heightAir tempDewpointWater temp
2014-Dec-17 14:21N 49°59' E 009°05'0 0.1
2014-Dec-17 13:19N 49°59' E 009°05'0 0.0
2014-Dec-17 12:32N 49°59' E 009°05'0 0.0
2014-Dec-17 11:26N 49°59' E 009°05'0 0.0
2014-Dec-17 10:29N 49°59' E 009°05'0 0.0
2014-Dec-17 09:27N 49°59' E 009°05'0 0.0
2014-Dec-17 08:29N 49°59' E 009°05'0 0.0
2014-Dec-17 07:33N 49°59' E 009°05'0 0.0
2014-Dec-17 06:33N 49°59' E 009°05'0 0.0
2014-Dec-17 05:32N 49°59' E 009°05'0 0.0
2014-Dec-17 04:33N 49°59' E 009°05'0 0.0
2014-Dec-17 03:33N 49°59' E 009°05'0 0.0
2014-Dec-17 02:33N 49°59' E 009°05'0 0.0
2014-Dec-17 01:33N 49°59' E 009°05'0 0.0
2014-Dec-17 00:33N 49°59' E 009°05'0 0.0
2014-Dec-16 23:33N 49°59' E 009°05'0 0.0
2014-Dec-16 22:33N 49°59' E 009°05'0 0.0
2014-Dec-16 21:32N 49°59' E 009°05'0 0.0
2014-Dec-16 20:33N 49°59' E 009°05'0 0.0
2014-Dec-16 19:33N 49°59' E 009°05'0 0.0
2014-Dec-16 18:33N 49°59' E 009°05'0 0.0
2014-Dec-16 17:33N 49°59' E 009°05'0 0.0
2014-Dec-16 16:33N 49°59' E 009°05'0 0.0
2014-Dec-16 15:33N 49°59' E 009°05'0 0.0
2014-Dec-16 14:33N 49°59' E 009°05'0 0.0
2014-Dec-16 13:33N 49°59' E 009°05'0 0.0
2014-Dec-16 12:14N 49°59' E 009°05'0 0.0
2014-Dec-16 11:32N 49°59' E 009°05'0 0.0
2014-Dec-16 10:33N 49°59' E 009°05'0 0.0
2014-Dec-16 09:33N 49°59' E 009°05'0 0.0
2014-Dec-16 08:33N 49°59' E 009°05'0 0.0
2014-Dec-16 07:32N 49°59' E 009°05'0 0.0
2014-Dec-16 06:32N 49°59' E 009°05'0 0.0
2014-Dec-16 05:32N 49°59' E 009°05'0 0.1
2014-Dec-16 04:27N 49°59' E 009°05'0 0.0
2014-Dec-16 03:30N 49°59' E 009°05'0 0.0
2014-Dec-16 02:32N 49°59' E 009°05'0 0.0
2014-Dec-16 00:07N 49°59' E 009°05'0 0.0
2014-Dec-15 23:20N 49°59' E 009°05'0 0.0
2014-Dec-15 22:31N 49°59' E 009°05'0 0.0
2014-Dec-15 21:30N 49°59' E 009°05'0 0.0
2014-Dec-15 20:25N 49°59' E 009°05'0 0.0
2014-Dec-15 19:31N 49°59' E 009°05'0 0.0
2014-Dec-15 18:27N 49°59' E 009°05'0 0.0
2014-Dec-15 17:29N 49°59' E 009°05'0 0.0
2014-Dec-15 16:28N 49°59' E 009°05'0 0.0
2014-Dec-15 15:31N 49°59' E 009°05'0 0.1
2014-Dec-15 14:33N 49°59' E 009°05'0 0.0
2014-Dec-15 13:28N 49°59' E 009°05'0 0.0
2014-Dec-15 12:26N 49°59' E 009°05'0 0.0
2014-Dec-15 11:33N 49°59' E 009°05'0 0.0
2014-Dec-15 10:33N 49°59' E 009°05'0 0.0
2014-Dec-15 09:18N 49°59' E 009°05'0 0.0
2014-Dec-15 08:28N 49°59' E 009°05'0 0.0
2014-Dec-15 07:10N 49°59' E 009°05'0 0.0
2014-Dec-15 06:30N 49°59' E 009°05'0 0.0
2014-Dec-15 05:31N 49°59' E 009°05'0 0.0
2014-Dec-15 04:12N 49°59' E 009°05'0 0.0
2014-Dec-14 20:18N 49°59' E 009°05'2 3.0
2014-Dec-14 19:33N 50°00' E 009°03'3 2.7
2014-Dec-14 18:33N 50°03' E 009°01'3 2.7
2014-Dec-14 17:33N 50°05' E 008°58'2 2.1
2014-Dec-14 16:33N 50°06' E 008°56'3 2.5
2014-Dec-14 15:33N 50°08' E 008°52'4 3.7
2014-Dec-14 14:33N 50°08' E 008°47'3 2.6
2014-Dec-14 13:33N 50°06' E 008°44'4 4.1
2014-Dec-14 12:33N 50°05' E 008°37'3 2.9
2014-Dec-14 11:29N 50°06' E 008°33'88 2.8
2014-Dec-13 04:28N 51°06' E 006°52'3 3.3
2014-Dec-13 03:33N 51°09' E 006°51'2 2.0
2014-Dec-13 02:33N 51°09' E 006°48'3 3.1
2014-Dec-13 01:33N 51°11' E 006°44'2 2.3
2014-Dec-13 00:33N 51°13' E 006°46'3 3.3
2014-Dec-12 23:33N 51°16' E 006°43'4 3.7
2014-Dec-12 22:27N 51°20' E 006°43'30 3.1
2014-Dec-12 12:30N 51°46' E 006°20'10 5.0
2014-Dec-12 10:29N 51°51' E 006°05'4 4.0
2014-Dec-12 09:33N 51°52' E 005°59'5 3.5
2014-Dec-12 08:05N 51°51' E 005°51'2 4.1
2014-Dec-12 07:31N 51°52' E 005°48'5 5.1
2014-Dec-12 06:33N 51°54' E 005°41'5 5.0
2014-Dec-12 05:33N 51°54' E 005°33'5 4.6
2014-Dec-12 04:33N 51°52' E 005°26'5 4.9
2014-Dec-12 03:33N 51°48' E 005°22'4 4.3
2014-Dec-12 02:33N 51°49' E 005°15'5 5.1
2014-Dec-12 01:33N 51°49' E 005°06'6 5.7
2014-Dec-12 00:33N 51°49' E 004°57'6 6.2
2014-Dec-11 23:33N 51°48' E 004°47'7 6.6
2014-Dec-11 22:33N 51°43' E 004°40'7 7.3
2014-Dec-11 21:33N 51°42' E 004°28'4 4.2
2014-Dec-11 20:31N 51°40' E 004°22'7 6.7
2014-Dec-11 19:32N 51°39' E 004°12'3 2.6
2014-Dec-11 18:28N 51°40' E 004°07'7 7.3
2014-Dec-11 17:33N 51°36' E 003°58'7 6.7
2014-Dec-11 16:33N 51°29' E 004°00'3 3.0
2014-Dec-11 15:33N 51°26' E 003°60'8 7.6
2014-Dec-11 14:34N 51°23' E 003°49'7 7.0
2014-Dec-11 13:33N 51°28' E 003°42'0 0.0
2014-Dec-11 12:34N 51°28' E 003°42'0 0.0
2014-Dec-11 11:34N 51°28' E 003°42'0 0.0
2014-Dec-11 10:34N 51°28' E 003°42'0 0.0
2014-Dec-11 09:33N 51°28' E 003°42'0 0.0
2014-Dec-11 08:34N 51°28' E 003°42'0 0.0
2014-Dec-11 07:34N 51°28' E 003°42'0 0.0
2014-Dec-11 06:34N 51°28' E 003°42'0 0.0
2014-Dec-11 05:33N 51°28' E 003°42'0 0.0
2014-Dec-11 04:33N 51°28' E 003°42'0 0.0
2014-Dec-11 03:34N 51°28' E 003°42'0 0.0
2014-Dec-11 02:34N 51°28' E 003°42'0 0.0
2014-Dec-11 01:33N 51°28' E 003°42'0 0.0
2014-Dec-11 00:34N 51°28' E 003°42'0 0.0
2014-Dec-10 23:34N 51°28' E 003°42'0 0.0
2014-Dec-10 22:34N 51°28' E 003°42'7 6.5
2014-Dec-10 21:33N 51°23' E 003°49'8 7.8
2014-Dec-10 20:33N 51°27' E 003°60'9 9.3
2014-Dec-10 19:33N 51°23' E 004°13'7 7.4
2014-Dec-10 18:33N 51°17' E 004°20'6 5.6
2014-Dec-10 17:33N 51°14' E 004°28'3 1.3
2014-Dec-10 15:33N 51°14' E 004°32'1 0.1
2014-Dec-10 04:28N 51°13' E 004°34'3 2.8
2014-Dec-10 03:33N 51°14' E 004°30'5 4.8
2014-Dec-10 02:33N 51°15' E 004°22'4 1.0
2014-Dec-09 22:16N 51°19' E 004°19'4 5.8
2014-Dec-09 21:30N 51°23' E 004°16'5 4.9
2014-Dec-09 20:32N 51°27' E 004°14'7 6.3
2014-Dec-09 19:28N 51°34' E 004°13'5 5.1
2014-Dec-09 18:32N 51°39' E 004°15'7 4.7
2014-Dec-09 17:05N 51°42' E 004°25'4 6.1
2014-Dec-09 16:30N 51°42' E 004°31'6 6.9
2014-Dec-09 15:33N 51°44' E 004°41'7 6.8
2014-Dec-09 14:33N 51°48' E 004°49'7 7.0
2014-Dec-09 13:33N 51°49' E 005°00'8 7.7
2014-Dec-09 12:33N 51°49' E 005°13'7 7.2
2014-Dec-09 11:33N 51°50' E 005°24'8 7.8
2014-Dec-09 10:33N 51°54' E 005°35'9 8.6
2014-Dec-09 09:28N 51°52' E 005°50'6 6.4
2014-Dec-09 08:30N 51°53' E 005°60'42 5.9
2014-Dec-09 01:28N 51°20' E 006°42'6 6.5
2014-Dec-09 00:33N 51°15' E 006°45'4 3.9
2014-Dec-08 23:33N 51°11' E 006°47'5 4.8
2014-Dec-08 22:33N 51°07' E 006°52'13 6.2
2014-Dec-08 20:32N 50°55' E 006°58'6 5.3
2014-Dec-08 19:26N 50°50' E 006°59'  
Track history (hours):
 
Tides and Currents Weather Stations Pressure Air Temp Water Temp Dewpoint Dewpoint Depression Visibility Wind Speed Wind Dir Waves Ship Positions

Love Boat

Last reported at 2014-Dec-17 14:21 UTC. Time now 2014-Dec-19 04:39 UTC.
Position N 49°59' E 009°05'.

Length 110 m; draft 3 m.

Type: Ship. MMSI: 205386190.

Date/timePositionNaut miles runAvg speedWind from/ knotsBaromVisibWave heightAir tempDewpointWater temp
2014-Dec-17 14:21N 49°59' E 009°05'0 0.1
2014-Dec-17 13:19N 49°59' E 009°05'0 0.0
2014-Dec-17 12:32N 49°59' E 009°05'0 0.0
2014-Dec-17 11:26N 49°59' E 009°05'0 0.0
2014-Dec-17 10:29N 49°59' E 009°05'0 0.0
2014-Dec-17 09:27N 49°59' E 009°05'0 0.0
2014-Dec-17 08:29N 49°59' E 009°05'0 0.0
2014-Dec-17 07:33N 49°59' E 009°05'0 0.0
2014-Dec-17 06:33N 49°59' E 009°05'0 0.0
2014-Dec-17 05:32N 49°59' E 009°05'0 0.0
2014-Dec-17 04:33N 49°59' E 009°05'0 0.0
2014-Dec-17 03:33N 49°59' E 009°05'0 0.0
2014-Dec-17 02:33N 49°59' E 009°05'0 0.0
2014-Dec-17 01:33N 49°59' E 009°05'0 0.0
2014-Dec-17 00:33N 49°59' E 009°05'0 0.0
2014-Dec-16 23:33N 49°59' E 009°05'0 0.0
2014-Dec-16 22:33N 49°59' E 009°05'0 0.0
2014-Dec-16 21:32N 49°59' E 009°05'0 0.0
2014-Dec-16 20:33N 49°59' E 009°05'0 0.0
2014-Dec-16 19:33N 49°59' E 009°05'0 0.0
2014-Dec-16 18:33N 49°59' E 009°05'0 0.0
2014-Dec-16 17:33N 49°59' E 009°05'0 0.0
2014-Dec-16 16:33N 49°59' E 009°05'0 0.0
2014-Dec-16 15:33N 49°59' E 009°05'0 0.0
2014-Dec-16 14:33N 49°59' E 009°05'0 0.0
2014-Dec-16 13:33N 49°59' E 009°05'0 0.0
2014-Dec-16 12:14N 49°59' E 009°05'0 0.0
2014-Dec-16 11:32N 49°59' E 009°05'0 0.0
2014-Dec-16 10:33N 49°59' E 009°05'0 0.0
2014-Dec-16 09:33N 49°59' E 009°05'0 0.0
2014-Dec-16 08:33N 49°59' E 009°05'0 0.0
2014-Dec-16 07:32N 49°59' E 009°05'0 0.0
2014-Dec-16 06:32N 49°59' E 009°05'0 0.0
2014-Dec-16 05:32N 49°59' E 009°05'0 0.1
2014-Dec-16 04:27N 49°59' E 009°05'0 0.0
2014-Dec-16 03:30N 49°59' E 009°05'0 0.0
2014-Dec-16 02:32N 49°59' E 009°05'0 0.0
2014-Dec-16 00:07N 49°59' E 009°05'0 0.0
2014-Dec-15 23:20N 49°59' E 009°05'0 0.0
2014-Dec-15 22:31N 49°59' E 009°05'0 0.0
2014-Dec-15 21:30N 49°59' E 009°05'0 0.0
2014-Dec-15 20:25N 49°59' E 009°05'0 0.0
2014-Dec-15 19:31N 49°59' E 009°05'0 0.0
2014-Dec-15 18:27N 49°59' E 009°05'0 0.0
2014-Dec-15 17:29N 49°59' E 009°05'0 0.0
2014-Dec-15 16:28N 49°59' E 009°05'0 0.0
2014-Dec-15 15:31N 49°59' E 009°05'0 0.1
2014-Dec-15 14:33N 49°59' E 009°05'0 0.0
2014-Dec-15 13:28N 49°59' E 009°05'0 0.0
2014-Dec-15 12:26N 49°59' E 009°05'0 0.0
2014-Dec-15 11:33N 49°59' E 009°05'0 0.0
2014-Dec-15 10:33N 49°59' E 009°05'0 0.0
2014-Dec-15 09:18N 49°59' E 009°05'0 0.0
2014-Dec-15 08:28N 49°59' E 009°05'0 0.0
2014-Dec-15 07:10N 49°59' E 009°05'0 0.0
2014-Dec-15 06:30N 49°59' E 009°05'0 0.0
2014-Dec-15 05:31N 49°59' E 009°05'0 0.0
2014-Dec-15 04:12N 49°59' E 009°05'0 0.0
2014-Dec-14 20:18N 49°59' E 009°05'2 3.0
2014-Dec-14 19:33N 50°00' E 009°03'3 2.7
2014-Dec-14 18:33N 50°03' E 009°01'3 2.7
2014-Dec-14 17:33N 50°05' E 008°58'2 2.1
2014-Dec-14 16:33N 50°06' E 008°56'3 2.5
2014-Dec-14 15:33N 50°08' E 008°52'4 3.7
2014-Dec-14 14:33N 50°08' E 008°47'3 2.6
2014-Dec-14 13:33N 50°06' E 008°44'4 4.1
2014-Dec-14 12:33N 50°05' E 008°37'3 2.9
2014-Dec-14 11:29N 50°06' E 008°33'88 2.8
2014-Dec-13 04:28N 51°06' E 006°52'3 3.3
2014-Dec-13 03:33N 51°09' E 006°51'2 2.0
2014-Dec-13 02:33N 51°09' E 006°48'3 3.1
2014-Dec-13 01:33N 51°11' E 006°44'2 2.3
2014-Dec-13 00:33N 51°13' E 006°46'3 3.3
2014-Dec-12 23:33N 51°16' E 006°43'4 3.7
2014-Dec-12 22:27N 51°20' E 006°43'30 3.1
2014-Dec-12 12:30N 51°46' E 006°20'10 5.0
2014-Dec-12 10:29N 51°51' E 006°05'4 4.0
2014-Dec-12 09:33N 51°52' E 005°59'5 3.5
2014-Dec-12 08:05N 51°51' E 005°51'2 4.1
2014-Dec-12 07:31N 51°52' E 005°48'5 5.1
2014-Dec-12 06:33N 51°54' E 005°41'5 5.0
2014-Dec-12 05:33N 51°54' E 005°33'5 4.6
2014-Dec-12 04:33N 51°52' E 005°26'5 4.9
2014-Dec-12 03:33N 51°48' E 005°22'4 4.3
2014-Dec-12 02:33N 51°49' E 005°15'5 5.1
2014-Dec-12 01:33N 51°49' E 005°06'6 5.7
2014-Dec-12 00:33N 51°49' E 004°57'6 6.2
2014-Dec-11 23:33N 51°48' E 004°47'7 6.6
2014-Dec-11 22:33N 51°43' E 004°40'7 7.3
2014-Dec-11 21:33N 51°42' E 004°28'4 4.2
2014-Dec-11 20:31N 51°40' E 004°22'7 6.7
2014-Dec-11 19:32N 51°39' E 004°12'3 2.6
2014-Dec-11 18:28N 51°40' E 004°07'7 7.3
2014-Dec-11 17:33N 51°36' E 003°58'7 6.7
2014-Dec-11 16:33N 51°29' E 004°00'3 3.0
2014-Dec-11 15:33N 51°26' E 003°60'8 7.6
2014-Dec-11 14:34N 51°23' E 003°49'7 7.0
2014-Dec-11 13:33N 51°28' E 003°42'0 0.0
2014-Dec-11 12:34N 51°28' E 003°42'0 0.0
2014-Dec-11 11:34N 51°28' E 003°42'0 0.0
2014-Dec-11 10:34N 51°28' E 003°42'0 0.0
2014-Dec-11 09:33N 51°28' E 003°42'0 0.0
2014-Dec-11 08:34N 51°28' E 003°42'0 0.0
2014-Dec-11 07:34N 51°28' E 003°42'0 0.0
2014-Dec-11 06:34N 51°28' E 003°42'0 0.0
2014-Dec-11 05:33N 51°28' E 003°42'0 0.0
2014-Dec-11 04:33N 51°28' E 003°42'0 0.0
2014-Dec-11 03:34N 51°28' E 003°42'0 0.0
2014-Dec-11 02:34N 51°28' E 003°42'0 0.0
2014-Dec-11 01:33N 51°28' E 003°42'0 0.0
2014-Dec-11 00:34N 51°28' E 003°42'0 0.0
2014-Dec-10 23:34N 51°28' E 003°42'0 0.0
2014-Dec-10 22:34N 51°28' E 003°42'7 6.5
2014-Dec-10 21:33N 51°23' E 003°49'8 7.8
2014-Dec-10 20:33N 51°27' E 003°60'9 9.3
2014-Dec-10 19:33N 51°23' E 004°13'7 7.4
2014-Dec-10 18:33N 51°17' E 004°20'6 5.6
2014-Dec-10 17:33N 51°14' E 004°28'3 1.3
2014-Dec-10 15:33N 51°14' E 004°32'1 0.1
2014-Dec-10 04:28N 51°13' E 004°34'3 2.8
2014-Dec-10 03:33N 51°14' E 004°30'5 4.8
2014-Dec-10 02:33N 51°15' E 004°22'4 1.0
2014-Dec-09 22:16N 51°19' E 004°19'4 5.8
2014-Dec-09 21:30N 51°23' E 004°16'5 4.9
2014-Dec-09 20:32N 51°27' E 004°14'7 6.3
2014-Dec-09 19:28N 51°34' E 004°13'5 5.1
2014-Dec-09 18:32N 51°39' E 004°15'7 4.7
2014-Dec-09 17:05N 51°42' E 004°25'4 6.1
2014-Dec-09 16:30N 51°42' E 004°31'6 6.9
2014-Dec-09 15:33N 51°44' E 004°41'7 6.8
2014-Dec-09 14:33N 51°48' E 004°49'7 7.0
2014-Dec-09 13:33N 51°49' E 005°00'8 7.7
2014-Dec-09 12:33N 51°49' E 005°13'7 7.2
2014-Dec-09 11:33N 51°50' E 005°24'8 7.8
2014-Dec-09 10:33N 51°54' E 005°35'9 8.6
2014-Dec-09 09:28N 51°52' E 005°50'6 6.4
2014-Dec-09 08:30N 51°53' E 005°60'42 5.9
2014-Dec-09 01:28N 51°20' E 006°42'6 6.5
2014-Dec-09 00:33N 51°15' E 006°45'4 3.9
2014-Dec-08 23:33N 51°11' E 006°47'5 4.8
2014-Dec-08 22:33N 51°07' E 006°52'13 6.2
2014-Dec-08 20:32N 50°55' E 006°58'6 5.3
2014-Dec-08 19:26N 50°50' E 006°59'  

Dump ship's entire track history